sensor_id;sensor_type;location;lat;lon;timestamp;P1;durP1;ratioP1;P2;durP2;ratioP2
18612;SDS011;9436;52.152;21.032;2023-02-22T00:00:33;8.10;;;3.77;;
18612;SDS011;9436;52.152;21.032;2023-02-22T00:03:07;8.63;;;3.43;;
18612;SDS011;9436;52.152;21.032;2023-02-22T00:05:36;6.60;;;3.10;;
18612;SDS011;9436;52.152;21.032;2023-02-22T00:08:06;7.37;;;3.33;;
18612;SDS011;9436;52.152;21.032;2023-02-22T00:10:35;8.43;;;3.90;;
18612;SDS011;9436;52.152;21.032;2023-02-22T00:13:04;7.27;;;3.50;;
18612;SDS011;9436;52.152;21.032;2023-02-22T00:15:33;8.77;;;2.97;;
18612;SDS011;9436;52.152;21.032;2023-02-22T00:18:02;9.03;;;3.47;;
18612;SDS011;9436;52.152;21.032;2023-02-22T00:20:31;11.60;;;3.60;;
18612;SDS011;9436;52.152;21.032;2023-02-22T00:22:58;7.70;;;3.90;;
18612;SDS011;9436;52.152;21.032;2023-02-22T00:25:26;11.47;;;3.80;;
18612;SDS011;9436;52.152;21.032;2023-02-22T00:27:53;10.60;;;3.97;;
18612;SDS011;9436;52.152;21.032;2023-02-22T00:30:22;8.33;;;3.87;;
18612;SDS011;9436;52.152;21.032;2023-02-22T00:32:51;7.90;;;4.47;;
18612;SDS011;9436;52.152;21.032;2023-02-22T00:35:20;10.13;;;3.73;;
18612;SDS011;9436;52.152;21.032;2023-02-22T00:37:49;8.37;;;3.70;;
18612;SDS011;9436;52.152;21.032;2023-02-22T00:40:18;7.23;;;3.40;;
18612;SDS011;9436;52.152;21.032;2023-02-22T00:42:48;8.37;;;3.93;;
18612;SDS011;9436;52.152;21.032;2023-02-22T00:45:17;10.10;;;3.83;;
18612;SDS011;9436;52.152;21.032;2023-02-22T00:47:46;8.00;;;3.93;;
18612;SDS011;9436;52.152;21.032;2023-02-22T00:50:14;11.87;;;3.90;;
18612;SDS011;9436;52.152;21.032;2023-02-22T00:52:41;10.73;;;3.37;;
18612;SDS011;9436;52.152;21.032;2023-02-22T00:55:09;9.13;;;4.17;;
18612;SDS011;9436;52.152;21.032;2023-02-22T00:57:41;8.27;;;3.93;;
18612;SDS011;9436;52.152;21.032;2023-02-22T01:00:14;10.33;;;4.23;;
18612;SDS011;9436;52.152;21.032;2023-02-22T01:02:43;7.60;;;3.77;;
18612;SDS011;9436;52.152;21.032;2023-02-22T01:05:11;9.77;;;3.80;;
18612;SDS011;9436;52.152;21.032;2023-02-22T01:07:40;10.17;;;3.60;;
18612;SDS011;9436;52.152;21.032;2023-02-22T01:10:09;9.83;;;3.83;;
18612;SDS011;9436;52.152;21.032;2023-02-22T01:12:37;11.10;;;3.93;;
18612;SDS011;9436;52.152;21.032;2023-02-22T01:15:05;9.77;;;3.70;;
18612;SDS011;9436;52.152;21.032;2023-02-22T01:17:37;9.97;;;4.30;;
18612;SDS011;9436;52.152;21.032;2023-02-22T01:20:07;9.10;;;3.87;;
18612;SDS011;9436;52.152;21.032;2023-02-22T01:22:37;7.70;;;3.97;;
18612;SDS011;9436;52.152;21.032;2023-02-22T01:25:04;10.43;;;3.97;;
18612;SDS011;9436;52.152;21.032;2023-02-22T01:27:32;10.23;;;4.40;;
18612;SDS011;9436;52.152;21.032;2023-02-22T01:29:59;10.37;;;4.00;;
18612;SDS011;9436;52.152;21.032;2023-02-22T01:32:32;8.97;;;4.23;;
18612;SDS011;9436;52.152;21.032;2023-02-22T01:35:01;12.47;;;4.40;;
18612;SDS011;9436;52.152;21.032;2023-02-22T01:37:29;11.10;;;4.57;;
18612;SDS011;9436;52.152;21.032;2023-02-22T01:39:56;9.87;;;4.50;;
18612;SDS011;9436;52.152;21.032;2023-02-22T01:42:23;11.53;;;4.93;;
18612;SDS011;9436;52.152;21.032;2023-02-22T01:47:51;10.07;;;4.70;;
18612;SDS011;9436;52.152;21.032;2023-02-22T01:50:21;10.53;;;4.57;;
18612;SDS011;9436;52.152;21.032;2023-02-22T01:52:48;10.50;;;4.87;;
18612;SDS011;9436;52.152;21.032;2023-02-22T01:55:16;12.87;;;4.40;;
18612;SDS011;9436;52.152;21.032;2023-02-22T01:57:43;12.60;;;4.60;;
18612;SDS011;9436;52.152;21.032;2023-02-22T02:00:12;9.67;;;4.50;;
18612;SDS011;9436;52.152;21.032;2023-02-22T02:02:44;11.60;;;4.83;;
18612;SDS011;9436;52.152;21.032;2023-02-22T02:05:15;10.63;;;4.70;;
18612;SDS011;9436;52.152;21.032;2023-02-22T02:07:44;10.27;;;4.63;;
18612;SDS011;9436;52.152;21.032;2023-02-22T02:10:12;8.73;;;4.63;;
18612;SDS011;9436;52.152;21.032;2023-02-22T02:12:40;10.80;;;4.57;;
18612;SDS011;9436;52.152;21.032;2023-02-22T02:15:17;9.57;;;4.37;;
18612;SDS011;9436;52.152;21.032;2023-02-22T02:17:47;10.17;;;4.60;;
18612;SDS011;9436;52.152;21.032;2023-02-22T02:20:16;8.70;;;4.13;;
18612;SDS011;9436;52.152;21.032;2023-02-22T02:22:51;10.10;;;4.30;;
18612;SDS011;9436;52.152;21.032;2023-02-22T02:28:26;9.57;;;3.67;;
18612;SDS011;9436;52.152;21.032;2023-02-22T02:34:16;7.07;;;3.97;;
18612;SDS011;9436;52.152;21.032;2023-02-22T02:36:50;7.87;;;3.47;;
18612;SDS011;9436;52.152;21.032;2023-02-22T02:39:24;8.70;;;3.70;;
18612;SDS011;9436;52.152;21.032;2023-02-22T02:41:54;8.33;;;3.87;;
18612;SDS011;9436;52.152;21.032;2023-02-22T02:44:25;9.53;;;4.10;;
18612;SDS011;9436;52.152;21.032;2023-02-22T02:46:58;10.27;;;3.87;;
18612;SDS011;9436;52.152;21.032;2023-02-22T02:49:31;7.90;;;3.60;;
18612;SDS011;9436;52.152;21.032;2023-02-22T02:52:02;7.67;;;3.50;;
18612;SDS011;9436;52.152;21.032;2023-02-22T02:54:31;10.03;;;3.90;;
18612;SDS011;9436;52.152;21.032;2023-02-22T02:57:01;9.40;;;3.63;;
18612;SDS011;9436;52.152;21.032;2023-02-22T02:59:29;7.27;;;3.40;;
18612;SDS011;9436;52.152;21.032;2023-02-22T03:02:05;7.83;;;3.07;;
18612;SDS011;9436;52.152;21.032;2023-02-22T03:04:50;7.60;;;3.10;;
18612;SDS011;9436;52.152;21.032;2023-02-22T03:07:34;5.80;;;3.10;;
18612;SDS011;9436;52.152;21.032;2023-02-22T03:10:14;6.37;;;3.17;;
18612;SDS011;9436;52.152;21.032;2023-02-22T03:12:54;8.63;;;3.33;;
18612;SDS011;9436;52.152;21.032;2023-02-22T03:15:31;6.83;;;3.00;;
18612;SDS011;9436;52.152;21.032;2023-02-22T03:18:04;7.67;;;3.50;;
18612;SDS011;9436;52.152;21.032;2023-02-22T03:20:40;7.13;;;3.67;;
18612;SDS011;9436;52.152;21.032;2023-02-22T03:23:14;6.13;;;3.57;;
18612;SDS011;9436;52.152;21.032;2023-02-22T03:25:50;7.60;;;3.40;;
18612;SDS011;9436;52.152;21.032;2023-02-22T03:28:21;7.73;;;3.60;;
18612;SDS011;9436;52.152;21.032;2023-02-22T03:30:53;9.20;;;3.73;;
18612;SDS011;9436;52.152;21.032;2023-02-22T03:33:24;8.80;;;3.50;;
18612;SDS011;9436;52.152;21.032;2023-02-22T03:36:01;8.13;;;3.93;;
18612;SDS011;9436;52.152;21.032;2023-02-22T03:38:32;7.47;;;3.50;;
18612;SDS011;9436;52.152;21.032;2023-02-22T03:41:03;7.10;;;3.80;;
18612;SDS011;9436;52.152;21.032;2023-02-22T03:43:35;7.67;;;3.90;;
18612;SDS011;9436;52.152;21.032;2023-02-22T03:46:04;8.63;;;3.70;;
18612;SDS011;9436;52.152;21.032;2023-02-22T03:48:35;7.20;;;3.87;;
18612;SDS011;9436;52.152;21.032;2023-02-22T03:51:10;6.97;;;3.33;;
18612;SDS011;9436;52.152;21.032;2023-02-22T03:53:40;8.90;;;3.40;;
18612;SDS011;9436;52.152;21.032;2023-02-22T03:56:10;5.13;;;3.40;;
18612;SDS011;9436;52.152;21.032;2023-02-22T03:58:41;6.47;;;3.57;;
18612;SDS011;9436;52.152;21.032;2023-02-22T04:01:10;8.13;;;3.50;;
18612;SDS011;9436;52.152;21.032;2023-02-22T04:03:38;5.90;;;3.63;;
18612;SDS011;9436;52.152;21.032;2023-02-22T04:06:06;6.10;;;3.57;;
18612;SDS011;9436;52.152;21.032;2023-02-22T04:08:35;4.50;;;3.10;;
18612;SDS011;9436;52.152;21.032;2023-02-22T04:11:03;6.70;;;3.53;;
18612;SDS011;9436;52.152;21.032;2023-02-22T04:13:30;5.73;;;3.70;;
18612;SDS011;9436;52.152;21.032;2023-02-22T04:15:57;6.10;;;3.73;;
18612;SDS011;9436;52.152;21.032;2023-02-22T04:18:24;7.53;;;3.63;;
18612;SDS011;9436;52.152;21.032;2023-02-22T04:20:51;6.00;;;3.70;;
18612;SDS011;9436;52.152;21.032;2023-02-22T04:23:18;7.83;;;3.90;;
18612;SDS011;9436;52.152;21.032;2023-02-22T04:25:46;5.90;;;3.47;;
18612;SDS011;9436;52.152;21.032;2023-02-22T04:28:13;6.10;;;3.90;;
18612;SDS011;9436;52.152;21.032;2023-02-22T04:30:41;5.47;;;3.63;;
18612;SDS011;9436;52.152;21.032;2023-02-22T04:33:08;6.20;;;3.70;;
18612;SDS011;9436;52.152;21.032;2023-02-22T04:35:35;6.33;;;3.90;;
18612;SDS011;9436;52.152;21.032;2023-02-22T04:38:03;6.03;;;4.20;;
18612;SDS011;9436;52.152;21.032;2023-02-22T04:40:30;3.30;;;2.20;;
18612;SDS011;9436;52.152;21.032;2023-02-22T04:42:58;2.22;;;1.75;;
18612;SDS011;9436;52.152;21.032;2023-02-22T04:45:26;2.33;;;1.87;;
18612;SDS011;9436;52.152;21.032;2023-02-22T04:47:53;1.80;;;1.70;;
18612;SDS011;9436;52.152;21.032;2023-02-22T04:50:20;1.93;;;1.80;;
18612;SDS011;9436;52.152;21.032;2023-02-22T04:52:47;3.27;;;1.90;;
18612;SDS011;9436;52.152;21.032;2023-02-22T04:55:15;2.27;;;1.77;;
18612;SDS011;9436;52.152;21.032;2023-02-22T04:57:42;2.63;;;2.03;;
18612;SDS011;9436;52.152;21.032;2023-02-22T05:00:14;1.97;;;1.80;;
18612;SDS011;9436;52.152;21.032;2023-02-22T05:02:42;2.30;;;2.10;;
18612;SDS011;9436;52.152;21.032;2023-02-22T05:05:11;2.47;;;1.80;;
18612;SDS011;9436;52.152;21.032;2023-02-22T05:07:39;2.83;;;2.40;;
18612;SDS011;9436;52.152;21.032;2023-02-22T05:10:06;3.50;;;2.30;;
18612;SDS011;9436;52.152;21.032;2023-02-22T05:12:33;3.03;;;2.30;;
18612;SDS011;9436;52.152;21.032;2023-02-22T05:15:01;2.53;;;2.17;;
18612;SDS011;9436;52.152;21.032;2023-02-22T05:17:29;3.47;;;2.30;;
18612;SDS011;9436;52.152;21.032;2023-02-22T05:19:57;2.63;;;2.10;;
18612;SDS011;9436;52.152;21.032;2023-02-22T05:22:24;2.70;;;1.93;;
18612;SDS011;9436;52.152;21.032;2023-02-22T05:24:51;2.20;;;1.97;;
18612;SDS011;9436;52.152;21.032;2023-02-22T05:27:18;2.40;;;2.20;;
18612;SDS011;9436;52.152;21.032;2023-02-22T05:29:45;2.93;;;2.20;;
18612;SDS011;9436;52.152;21.032;2023-02-22T05:32:13;2.80;;;2.40;;
18612;SDS011;9436;52.152;21.032;2023-02-22T05:34:41;2.43;;;2.23;;
18612;SDS011;9436;52.152;21.032;2023-02-22T05:37:08;2.07;;;1.90;;
18612;SDS011;9436;52.152;21.032;2023-02-22T05:39:35;2.97;;;2.37;;
18612;SDS011;9436;52.152;21.032;2023-02-22T05:42:02;2.73;;;2.20;;
18612;SDS011;9436;52.152;21.032;2023-02-22T05:44:29;3.63;;;2.23;;
18612;SDS011;9436;52.152;21.032;2023-02-22T05:46:56;3.20;;;2.10;;
18612;SDS011;9436;52.152;21.032;2023-02-22T05:49:23;2.88;;;2.50;;
18612;SDS011;9436;52.152;21.032;2023-02-22T05:51:52;2.70;;;2.30;;
18612;SDS011;9436;52.152;21.032;2023-02-22T05:54:23;4.10;;;2.60;;
18612;SDS011;9436;52.152;21.032;2023-02-22T05:56:50;3.10;;;2.43;;
18612;SDS011;9436;52.152;21.032;2023-02-22T05:59:17;2.60;;;2.40;;
18612;SDS011;9436;52.152;21.032;2023-02-22T06:01:44;3.67;;;2.47;;
18612;SDS011;9436;52.152;21.032;2023-02-22T06:04:12;2.97;;;2.47;;
18612;SDS011;9436;52.152;21.032;2023-02-22T06:06:39;3.60;;;2.63;;
18612;SDS011;9436;52.152;21.032;2023-02-22T06:09:07;3.37;;;2.47;;
18612;SDS011;9436;52.152;21.032;2023-02-22T06:11:34;3.07;;;2.27;;
18612;SDS011;9436;52.152;21.032;2023-02-22T06:14:01;3.10;;;2.50;;
18612;SDS011;9436;52.152;21.032;2023-02-22T06:16:28;2.43;;;2.23;;
18612;SDS011;9436;52.152;21.032;2023-02-22T06:18:56;2.90;;;2.30;;
18612;SDS011;9436;52.152;21.032;2023-02-22T06:21:24;3.47;;;2.30;;
18612;SDS011;9436;52.152;21.032;2023-02-22T06:23:52;3.40;;;2.17;;
18612;SDS011;9436;52.152;21.032;2023-02-22T06:26:21;3.20;;;2.40;;
18612;SDS011;9436;52.152;21.032;2023-02-22T06:28:48;2.27;;;1.93;;
18612;SDS011;9436;52.152;21.032;2023-02-22T06:31:15;2.40;;;2.20;;
18612;SDS011;9436;52.152;21.032;2023-02-22T06:33:42;2.97;;;2.17;;
18612;SDS011;9436;52.152;21.032;2023-02-22T06:36:09;2.50;;;2.30;;
18612;SDS011;9436;52.152;21.032;2023-02-22T06:38:36;2.77;;;1.87;;
18612;SDS011;9436;52.152;21.032;2023-02-22T06:41:03;2.10;;;1.90;;
18612;SDS011;9436;52.152;21.032;2023-02-22T06:43:32;3.13;;;1.90;;
18612;SDS011;9436;52.152;21.032;2023-02-22T06:45:59;2.23;;;1.90;;
18612;SDS011;9436;52.152;21.032;2023-02-22T06:48:26;1.80;;;1.70;;
18612;SDS011;9436;52.152;21.032;2023-02-22T06:50:53;2.77;;;1.90;;
18612;SDS011;9436;52.152;21.032;2023-02-22T06:53:20;4.40;;;1.80;;
18612;SDS011;9436;52.152;21.032;2023-02-22T06:55:49;2.43;;;1.73;;
18612;SDS011;9436;52.152;21.032;2023-02-22T06:58:19;2.27;;;1.60;;
18612;SDS011;9436;52.152;21.032;2023-02-22T07:00:47;2.77;;;1.80;;
18612;SDS011;9436;52.152;21.032;2023-02-22T07:03:15;2.50;;;1.77;;
18612;SDS011;9436;52.152;21.032;2023-02-22T07:05:42;1.70;;;1.50;;
18612;SDS011;9436;52.152;21.032;2023-02-22T07:08:09;2.07;;;1.83;;
18612;SDS011;9436;52.152;21.032;2023-02-22T07:10:38;2.07;;;1.70;;
18612;SDS011;9436;52.152;21.032;2023-02-22T07:13:06;2.43;;;2.00;;
18612;SDS011;9436;52.152;21.032;2023-02-22T07:15:34;2.20;;;2.00;;
18612;SDS011;9436;52.152;21.032;2023-02-22T07:18:02;2.40;;;1.90;;
18612;SDS011;9436;52.152;21.032;2023-02-22T07:20:30;3.13;;;2.00;;
18612;SDS011;9436;52.152;21.032;2023-02-22T07:22:57;2.67;;;2.00;;
18612;SDS011;9436;52.152;21.032;2023-02-22T07:25:25;2.70;;;2.03;;
18612;SDS011;9436;52.152;21.032;2023-02-22T07:27:52;2.17;;;1.97;;
18612;SDS011;9436;52.152;21.032;2023-02-22T07:30:20;4.83;;;2.30;;
18612;SDS011;9436;52.152;21.032;2023-02-22T07:32:50;3.20;;;2.20;;
18612;SDS011;9436;52.152;21.032;2023-02-22T07:35:21;3.87;;;2.10;;
18612;SDS011;9436;52.152;21.032;2023-02-22T07:37:48;3.90;;;2.20;;
18612;SDS011;9436;52.152;21.032;2023-02-22T07:40:16;2.87;;;2.07;;
18612;SDS011;9436;52.152;21.032;2023-02-22T07:42:50;4.10;;;2.40;;
18612;SDS011;9436;52.152;21.032;2023-02-22T07:45:18;4.07;;;2.20;;
18612;SDS011;9436;52.152;21.032;2023-02-22T07:47:46;3.30;;;2.43;;
18612;SDS011;9436;52.152;21.032;2023-02-22T07:50:14;3.37;;;2.47;;
18612;SDS011;9436;52.152;21.032;2023-02-22T07:52:45;2.63;;;2.10;;
18612;SDS011;9436;52.152;21.032;2023-02-22T07:55:13;5.60;;;2.37;;
18612;SDS011;9436;52.152;21.032;2023-02-22T07:57:41;3.20;;;2.33;;
18612;SDS011;9436;52.152;21.032;2023-02-22T08:00:09;4.33;;;2.53;;
18612;SDS011;9436;52.152;21.032;2023-02-22T08:02:39;2.50;;;2.30;;
18612;SDS011;9436;52.152;21.032;2023-02-22T08:05:09;2.90;;;2.40;;
18612;SDS011;9436;52.152;21.032;2023-02-22T08:07:37;3.43;;;2.60;;
18612;SDS011;9436;52.152;21.032;2023-02-22T08:10:06;3.10;;;2.53;;
18612;SDS011;9436;52.152;21.032;2023-02-22T08:12:35;3.03;;;2.30;;
18612;SDS011;9436;52.152;21.032;2023-02-22T08:15:04;2.23;;;2.03;;
18612;SDS011;9436;52.152;21.032;2023-02-22T08:17:32;3.20;;;2.40;;
18612;SDS011;9436;52.152;21.032;2023-02-22T08:19:59;3.37;;;2.60;;
18612;SDS011;9436;52.152;21.032;2023-02-22T08:22:27;2.80;;;2.47;;
18612;SDS011;9436;52.152;21.032;2023-02-22T08:24:54;4.60;;;2.80;;
18612;SDS011;9436;52.152;21.032;2023-02-22T08:27:23;3.00;;;2.53;;
18612;SDS011;9436;52.152;21.032;2023-02-22T08:29:51;2.90;;;2.53;;
18612;SDS011;9436;52.152;21.032;2023-02-22T08:32:19;6.97;;;2.50;;
18612;SDS011;9436;52.152;21.032;2023-02-22T08:34:46;5.07;;;2.40;;
18612;SDS011;9436;52.152;21.032;2023-02-22T08:37:13;4.90;;;2.43;;
18612;SDS011;9436;52.152;21.032;2023-02-22T08:39:41;3.10;;;2.10;;
18612;SDS011;9436;52.152;21.032;2023-02-22T08:42:08;3.80;;;2.47;;
18612;SDS011;9436;52.152;21.032;2023-02-22T08:44:37;2.37;;;2.17;;
18612;SDS011;9436;52.152;21.032;2023-02-22T08:47:05;2.60;;;2.37;;
18612;SDS011;9436;52.152;21.032;2023-02-22T08:49:33;2.97;;;2.20;;
18612;SDS011;9436;52.152;21.032;2023-02-22T08:52:00;2.60;;;2.30;;
18612;SDS011;9436;52.152;21.032;2023-02-22T08:54:27;3.00;;;2.40;;
18612;SDS011;9436;52.152;21.032;2023-02-22T08:56:54;3.20;;;2.33;;
18612;SDS011;9436;52.152;21.032;2023-02-22T08:59:21;4.37;;;2.33;;
18612;SDS011;9436;52.152;21.032;2023-02-22T09:01:49;2.87;;;2.40;;
18612;SDS011;9436;52.152;21.032;2023-02-22T09:04:16;3.43;;;2.43;;
18612;SDS011;9436;52.152;21.032;2023-02-22T09:06:43;2.73;;;2.53;;
18612;SDS011;9436;52.152;21.032;2023-02-22T09:09:15;3.03;;;2.57;;
18612;SDS011;9436;52.152;21.032;2023-02-22T09:11:45;3.20;;;2.50;;
18612;SDS011;9436;52.152;21.032;2023-02-22T09:14:12;4.03;;;3.00;;
18612;SDS011;9436;52.152;21.032;2023-02-22T09:16:40;4.77;;;2.80;;
18612;SDS011;9436;52.152;21.032;2023-02-22T09:19:09;3.83;;;3.33;;
18612;SDS011;9436;52.152;21.032;2023-02-22T09:21:36;3.50;;;3.20;;
18612;SDS011;9436;52.152;21.032;2023-02-22T09:24:04;4.07;;;3.20;;
18612;SDS011;9436;52.152;21.032;2023-02-22T09:26:33;3.80;;;2.80;;
18612;SDS011;9436;52.152;21.032;2023-02-22T09:29:03;3.80;;;2.70;;
18612;SDS011;9436;52.152;21.032;2023-02-22T09:31:34;2.93;;;2.73;;
18612;SDS011;9436;52.152;21.032;2023-02-22T09:34:01;3.10;;;2.63;;
18612;SDS011;9436;52.152;21.032;2023-02-22T09:36:31;3.50;;;2.77;;
18612;SDS011;9436;52.152;21.032;2023-02-22T09:38:59;3.37;;;2.93;;
18612;SDS011;9436;52.152;21.032;2023-02-22T09:41:26;3.23;;;2.47;;
18612;SDS011;9436;52.152;21.032;2023-02-22T09:44:06;2.47;;;2.27;;
18612;SDS011;9436;52.152;21.032;2023-02-22T09:46:41;2.87;;;2.57;;
18612;SDS011;9436;52.152;21.032;2023-02-22T09:49:15;3.80;;;2.80;;
18612;SDS011;9436;52.152;21.032;2023-02-22T09:51:49;3.33;;;2.87;;
18612;SDS011;9436;52.152;21.032;2023-02-22T09:54:21;3.17;;;2.87;;
18612;SDS011;9436;52.152;21.032;2023-02-22T09:56:59;3.63;;;2.97;;
18612;SDS011;9436;52.152;21.032;2023-02-22T09:59:33;3.63;;;2.90;;
18612;SDS011;9436;52.152;21.032;2023-02-22T10:02:12;3.50;;;2.90;;
18612;SDS011;9436;52.152;21.032;2023-02-22T10:04:50;3.30;;;2.80;;
18612;SDS011;9436;52.152;21.032;2023-02-22T10:07:25;4.50;;;3.50;;
18612;SDS011;9436;52.152;21.032;2023-02-22T10:09:56;3.83;;;3.10;;
18612;SDS011;9436;52.152;21.032;2023-02-22T10:12:32;4.23;;;3.40;;
18612;SDS011;9436;52.152;21.032;2023-02-22T10:15:26;3.50;;;3.17;;
18612;SDS011;9436;52.152;21.032;2023-02-22T10:18:11;3.97;;;3.50;;
18612;SDS011;9436;52.152;21.032;2023-02-22T10:20:52;5.00;;;3.67;;
18612;SDS011;9436;52.152;21.032;2023-02-22T10:23:26;4.13;;;3.30;;
18612;SDS011;9436;52.152;21.032;2023-02-22T10:26:02;4.50;;;3.47;;
18612;SDS011;9436;52.152;21.032;2023-02-22T10:28:40;4.07;;;3.33;;
18612;SDS011;9436;52.152;21.032;2023-02-22T10:31:16;4.87;;;3.30;;
18612;SDS011;9436;52.152;21.032;2023-02-22T10:33:50;4.43;;;3.30;;
18612;SDS011;9436;52.152;21.032;2023-02-22T10:36:21;5.30;;;3.50;;
18612;SDS011;9436;52.152;21.032;2023-02-22T10:38:52;4.80;;;3.43;;
18612;SDS011;9436;52.152;21.032;2023-02-22T10:41:25;5.67;;;4.47;;
18612;SDS011;9436;52.152;21.032;2023-02-22T10:43:55;5.67;;;4.70;;
18612;SDS011;9436;52.152;21.032;2023-02-22T10:46:22;8.47;;;5.50;;
18612;SDS011;9436;52.152;21.032;2023-02-22T10:48:53;6.77;;;5.33;;
18612;SDS011;9436;52.152;21.032;2023-02-22T10:51:26;6.43;;;4.73;;
18612;SDS011;9436;52.152;21.032;2023-02-22T10:53:58;6.70;;;5.40;;
18612;SDS011;9436;52.152;21.032;2023-02-22T10:56:40;7.93;;;5.23;;
18612;SDS011;9436;52.152;21.032;2023-02-22T10:59:24;6.63;;;5.00;;
18612;SDS011;9436;52.152;21.032;2023-02-22T11:01:52;6.20;;;4.87;;
18612;SDS011;9436;52.152;21.032;2023-02-22T11:04:20;7.00;;;4.87;;
18612;SDS011;9436;52.152;21.032;2023-02-22T11:06:49;6.57;;;5.10;;
18612;SDS011;9436;52.152;21.032;2023-02-22T11:09:45;6.60;;;5.78;;
18612;SDS011;9436;52.152;21.032;2023-02-22T11:12:16;6.87;;;5.13;;
18612;SDS011;9436;52.152;21.032;2023-02-22T11:14:46;7.23;;;5.37;;
18612;SDS011;9436;52.152;21.032;2023-02-22T11:17:16;6.90;;;5.40;;
18612;SDS011;9436;52.152;21.032;2023-02-22T11:19:48;7.53;;;5.00;;
18612;SDS011;9436;52.152;21.032;2023-02-22T11:22:20;7.57;;;5.80;;
18612;SDS011;9436;52.152;21.032;2023-02-22T11:24:52;6.73;;;5.27;;
18612;SDS011;9436;52.152;21.032;2023-02-22T11:27:24;6.90;;;5.30;;
18612;SDS011;9436;52.152;21.032;2023-02-22T11:30:11;6.50;;;4.90;;
18612;SDS011;9436;52.152;21.032;2023-02-22T11:32:46;6.67;;;5.10;;
18612;SDS011;9436;52.152;21.032;2023-02-22T11:35:21;7.73;;;5.47;;
18612;SDS011;9436;52.152;21.032;2023-02-22T11:43:47;6.87;;;5.23;;
18612;SDS011;9436;52.152;21.032;2023-02-22T11:46:16;6.90;;;4.77;;
18612;SDS011;9436;52.152;21.032;2023-02-22T11:48:52;7.03;;;5.67;;
18612;SDS011;9436;52.152;21.032;2023-02-22T11:51:25;7.53;;;5.60;;
18612;SDS011;9436;52.152;21.032;2023-02-22T11:54:07;9.40;;;5.90;;
18612;SDS011;9436;52.152;21.032;2023-02-22T11:56:50;7.47;;;5.67;;
18612;SDS011;9436;52.152;21.032;2023-02-22T11:59:24;9.13;;;6.03;;
18612;SDS011;9436;52.152;21.032;2023-02-22T12:02:00;8.40;;;5.20;;
18612;SDS011;9436;52.152;21.032;2023-02-22T12:04:53;8.57;;;5.67;;
18612;SDS011;9436;52.152;21.032;2023-02-22T12:07:40;7.07;;;5.87;;
18612;SDS011;9436;52.152;21.032;2023-02-22T12:10:18;8.60;;;5.80;;
18612;SDS011;9436;52.152;21.032;2023-02-22T12:12:59;8.53;;;5.40;;
18612;SDS011;9436;52.152;21.032;2023-02-22T12:15:37;7.60;;;5.60;;
18612;SDS011;9436;52.152;21.032;2023-02-22T12:18:10;6.93;;;5.00;;
18612;SDS011;9436;52.152;21.032;2023-02-22T12:20:44;7.43;;;5.03;;
18612;SDS011;9436;52.152;21.032;2023-02-22T12:23:16;6.33;;;4.80;;
18612;SDS011;9436;52.152;21.032;2023-02-22T12:25:57;5.87;;;4.60;;
18612;SDS011;9436;52.152;21.032;2023-02-22T12:28:31;6.90;;;5.03;;
18612;SDS011;9436;52.152;21.032;2023-02-22T12:31:05;7.57;;;5.37;;
18612;SDS011;9436;52.152;21.032;2023-02-22T12:33:42;5.60;;;4.53;;
18612;SDS011;9436;52.152;21.032;2023-02-22T12:36:18;6.20;;;4.73;;
18612;SDS011;9436;52.152;21.032;2023-02-22T12:38:50;9.60;;;5.13;;
18612;SDS011;9436;52.152;21.032;2023-02-22T12:41:24;6.23;;;5.07;;
18612;SDS011;9436;52.152;21.032;2023-02-22T12:43:59;6.13;;;4.83;;
18612;SDS011;9436;52.152;21.032;2023-02-22T12:46:35;9.33;;;5.30;;
18612;SDS011;9436;52.152;21.032;2023-02-22T12:49:07;6.83;;;5.33;;
18612;SDS011;9436;52.152;21.032;2023-02-22T12:51:42;7.23;;;5.20;;
18612;SDS011;9436;52.152;21.032;2023-02-22T12:54:15;6.50;;;5.37;;
18612;SDS011;9436;52.152;21.032;2023-02-22T12:56:48;6.70;;;4.97;;
18612;SDS011;9436;52.152;21.032;2023-02-22T12:59:20;5.63;;;4.43;;
18612;SDS011;9436;52.152;21.032;2023-02-22T13:01:53;6.37;;;4.73;;
18612;SDS011;9436;52.152;21.032;2023-02-22T13:04:25;6.57;;;4.90;;
18612;SDS011;9436;52.152;21.032;2023-02-22T13:07:06;6.57;;;5.20;;
18612;SDS011;9436;52.152;21.032;2023-02-22T13:12:36;5.50;;;4.70;;
18612;SDS011;9436;52.152;21.032;2023-02-22T13:15:14;7.37;;;4.53;;
18612;SDS011;9436;52.152;21.032;2023-02-22T13:17:47;5.23;;;4.13;;
18612;SDS011;9436;52.152;21.032;2023-02-22T13:20:24;6.17;;;4.33;;
18612;SDS011;9436;52.152;21.032;2023-02-22T13:22:57;5.63;;;4.33;;
18612;SDS011;9436;52.152;21.032;2023-02-22T13:25:31;5.17;;;4.43;;
18612;SDS011;9436;52.152;21.032;2023-02-22T13:28:09;4.77;;;3.90;;
18612;SDS011;9436;52.152;21.032;2023-02-22T13:31:07;6.03;;;4.20;;
18612;SDS011;9436;52.152;21.032;2023-02-22T13:34:02;4.70;;;3.93;;
18612;SDS011;9436;52.152;21.032;2023-02-22T13:36:45;6.40;;;4.40;;
18612;SDS011;9436;52.152;21.032;2023-02-22T13:42:43;6.00;;;4.60;;
18612;SDS011;9436;52.152;21.032;2023-02-22T13:45:27;4.53;;;3.63;;
18612;SDS011;9436;52.152;21.032;2023-02-22T13:48:32;7.20;;;4.60;;
18612;SDS011;9436;52.152;21.032;2023-02-22T13:51:29;5.20;;;3.97;;
18612;SDS011;9436;52.152;21.032;2023-02-22T13:54:05;5.67;;;4.23;;
18612;SDS011;9436;52.152;21.032;2023-02-22T13:56:40;5.93;;;4.50;;
18612;SDS011;9436;52.152;21.032;2023-02-22T13:59:19;5.53;;;4.00;;
18612;SDS011;9436;52.152;21.032;2023-02-22T14:01:49;4.67;;;3.70;;
18612;SDS011;9436;52.152;21.032;2023-02-22T14:04:32;4.17;;;3.63;;
18612;SDS011;9436;52.152;21.032;2023-02-22T14:10:33;7.07;;;5.03;;
18612;SDS011;9436;52.152;21.032;2023-02-22T14:13:09;6.27;;;4.27;;
18612;SDS011;9436;52.152;21.032;2023-02-22T14:18:39;5.70;;;4.37;;
18612;SDS011;9436;52.152;21.032;2023-02-22T14:21:09;5.33;;;4.43;;
18612;SDS011;9436;52.152;21.032;2023-02-22T14:23:40;5.53;;;4.07;;
18612;SDS011;9436;52.152;21.032;2023-02-22T14:26:10;5.33;;;4.57;;
18612;SDS011;9436;52.152;21.032;2023-02-22T14:28:42;5.00;;;4.10;;
18612;SDS011;9436;52.152;21.032;2023-02-22T14:31:18;6.23;;;4.13;;
18612;SDS011;9436;52.152;21.032;2023-02-22T14:33:51;5.43;;;4.30;;
18612;SDS011;9436;52.152;21.032;2023-02-22T14:36:21;6.13;;;4.73;;
18612;SDS011;9436;52.152;21.032;2023-02-22T14:38:52;6.57;;;4.27;;
18612;SDS011;9436;52.152;21.032;2023-02-22T14:41:24;7.00;;;4.80;;
18612;SDS011;9436;52.152;21.032;2023-02-22T14:43:55;6.23;;;4.20;;
18612;SDS011;9436;52.152;21.032;2023-02-22T14:46:28;7.90;;;4.33;;
18612;SDS011;9436;52.152;21.032;2023-02-22T14:49:04;5.27;;;3.87;;
18612;SDS011;9436;52.152;21.032;2023-02-22T14:51:38;7.90;;;4.30;;
18612;SDS011;9436;52.152;21.032;2023-02-22T14:54:08;6.00;;;4.40;;
18612;SDS011;9436;52.152;21.032;2023-02-22T14:56:50;5.30;;;4.20;;
18612;SDS011;9436;52.152;21.032;2023-02-22T14:59:24;5.33;;;4.17;;
18612;SDS011;9436;52.152;21.032;2023-02-22T15:02:03;6.43;;;4.27;;
18612;SDS011;9436;52.152;21.032;2023-02-22T15:04:31;5.93;;;4.43;;
18612;SDS011;9436;52.152;21.032;2023-02-22T15:06:59;7.83;;;4.23;;
18612;SDS011;9436;52.152;21.032;2023-02-22T15:09:33;5.33;;;4.27;;
18612;SDS011;9436;52.152;21.032;2023-02-22T15:12:12;8.77;;;4.90;;
18612;SDS011;9436;52.152;21.032;2023-02-22T15:14:46;6.67;;;4.07;;
18612;SDS011;9436;52.152;21.032;2023-02-22T15:17:15;7.50;;;4.03;;
18612;SDS011;9436;52.152;21.032;2023-02-22T15:19:46;5.30;;;3.80;;
18612;SDS011;9436;52.152;21.032;2023-02-22T15:22:17;5.77;;;4.10;;
18612;SDS011;9436;52.152;21.032;2023-02-22T15:24:46;5.47;;;4.00;;
18612;SDS011;9436;52.152;21.032;2023-02-22T15:27:24;4.43;;;3.33;;
18612;SDS011;9436;52.152;21.032;2023-02-22T15:29:56;4.50;;;4.03;;
18612;SDS011;9436;52.152;21.032;2023-02-22T15:32:29;5.37;;;3.90;;
18612;SDS011;9436;52.152;21.032;2023-02-22T15:35:13;5.67;;;3.70;;
18612;SDS011;9436;52.152;21.032;2023-02-22T15:37:42;4.53;;;3.67;;